createdAt,value
2024-05-09T00:01:37.124Z,13.28
2024-05-09T00:04:08.368Z,13.13
2024-05-09T00:06:40.539Z,12.76
2024-05-09T00:09:15.049Z,12.57
2024-05-09T00:11:48.104Z,12.49
2024-05-09T00:14:20.358Z,12.53
2024-05-09T00:16:53.938Z,12.62
2024-05-09T00:19:27.572Z,12.87
2024-05-09T00:21:59.544Z,12.89
2024-05-09T00:24:32.676Z,12.92
2024-05-09T00:27:05.235Z,12.63
2024-05-09T00:29:38.004Z,12.44
2024-05-09T00:32:11.098Z,12.59
2024-05-09T00:34:44.996Z,12.72
2024-05-09T00:37:18.114Z,12.65
2024-05-09T00:39:50.261Z,12.61
2024-05-09T00:42:25.807Z,12.59
2024-05-09T00:44:58.214Z,12.29
2024-05-09T00:47:30.934Z,12.13
2024-05-09T00:50:09.788Z,12.07
2024-05-09T00:52:44.762Z,12.09
2024-05-09T00:55:18.402Z,12.11
2024-05-09T00:57:53.334Z,12.07
2024-05-09T01:00:32.097Z,11.98
2024-05-09T01:03:13.236Z,11.73
2024-05-09T01:05:46.867Z,11.76
2024-05-09T01:08:19.774Z,11.86
2024-05-09T01:10:53.754Z,11.93
2024-05-09T01:13:26.525Z,11.94
2024-05-09T01:15:59.447Z,12.02
2024-05-09T01:18:32.490Z,11.77
2024-05-09T01:21:08.220Z,11.79
2024-05-09T01:23:40.588Z,11.88
2024-05-09T01:26:14.373Z,11.94
2024-05-09T01:28:46.932Z,12.11
2024-05-09T01:31:19.362Z,12.00
2024-05-09T01:33:52.067Z,11.72
2024-05-09T01:36:25.142Z,11.50
2024-05-09T01:38:57.958Z,11.64
2024-05-09T01:41:30.532Z,11.63
2024-05-09T01:44:03.990Z,11.73
2024-05-09T01:46:39.175Z,11.85
2024-05-09T01:49:11.853Z,11.95
2024-05-09T01:51:47.233Z,11.67
2024-05-09T01:54:19.456Z,11.56
2024-05-09T01:56:52.564Z,11.61
2024-05-09T01:59:27.055Z,11.62
2024-05-09T02:01:59.656Z,11.61
2024-05-09T02:04:32.812Z,11.62
2024-05-09T02:07:06.972Z,11.53
2024-05-09T02:09:39.121Z,11.21
2024-05-09T02:12:12.978Z,11.27
2024-05-09T02:14:48.852Z,11.43
2024-05-09T02:17:21.437Z,11.59
2024-05-09T02:19:54.972Z,11.62
2024-05-09T02:22:28.676Z,11.67
2024-05-09T02:25:01.094Z,11.48
2024-05-09T02:27:34.083Z,11.24
2024-05-09T02:30:18.371Z,11.22
2024-05-09T02:32:59.063Z,11.26
2024-05-09T02:35:32.617Z,11.28
2024-05-09T02:38:05.857Z,11.26
2024-05-09T02:40:39.706Z,11.17
2024-05-09T02:43:14.863Z,10.91
2024-05-09T02:45:47.283Z,11.01
2024-05-09T02:48:19.296Z,11.20
2024-05-09T02:50:53.450Z,11.23
2024-05-09T02:53:26.840Z,11.31
2024-05-09T02:55:58.837Z,11.31
2024-05-09T02:58:30.806Z,11.00
2024-05-09T03:01:05.121Z,10.79
2024-05-09T03:03:40.180Z,10.82
2024-05-09T03:06:14.584Z,10.89
2024-05-09T03:08:49.229Z,11.00
2024-05-09T03:11:25.660Z,10.94
2024-05-09T03:13:59.274Z,10.83
2024-05-09T03:16:32.560Z,10.56
2024-05-09T03:19:05.770Z,10.59
2024-05-09T03:21:42.622Z,10.67
2024-05-09T03:24:15.203Z,10.53
2024-05-09T03:26:52.591Z,10.29
2024-05-09T03:29:27.694Z,10.35
2024-05-09T03:31:59.602Z,10.44
2024-05-09T03:34:32.671Z,10.57
2024-05-09T03:37:05.596Z,10.80
2024-05-09T03:39:38.180Z,10.79
2024-05-09T03:42:10.208Z,10.54
2024-05-09T03:44:44.708Z,10.57
2024-05-09T03:47:17.774Z,10.69
2024-05-09T03:49:50.295Z,10.82
2024-05-09T03:52:25.928Z,10.90
2024-05-09T03:54:58.698Z,10.83
2024-05-09T03:57:30.868Z,10.58
2024-05-09T04:00:07.364Z,10.60
2024-05-09T04:02:44.564Z,10.71
2024-05-09T04:05:18.052Z,10.76
2024-05-09T04:07:50.769Z,10.76
2024-05-09T04:10:30.904Z,10.54
2024-05-09T04:13:06.368Z,10.62
2024-05-09T04:15:38.896Z,10.82
2024-05-09T04:18:12.778Z,10.92
2024-05-09T04:20:45.513Z,11.11
2024-05-09T04:23:17.854Z,11.14
2024-05-09T04:25:50.597Z,10.90
2024-05-09T04:28:29.691Z,11.01
2024-05-09T04:31:03.679Z,11.10
2024-05-09T04:33:37.930Z,11.26
2024-05-09T04:36:10.993Z,11.41
2024-05-09T04:38:45.059Z,11.37
2024-05-09T04:41:18.412Z,11.13
2024-05-09T04:43:54.831Z,10.88
2024-05-09T04:46:27.868Z,11.06
2024-05-09T04:49:00.034Z,11.30
2024-05-09T04:51:34.707Z,11.47
2024-05-09T04:54:10.566Z,11.50
2024-05-09T04:56:43.861Z,11.19
2024-05-09T04:59:16.455Z,11.10
2024-05-09T05:01:49.111Z,11.51
2024-05-09T05:04:24.196Z,12.58
2024-05-09T05:06:55.168Z,13.92
2024-05-09T05:09:28.571Z,15.00
2024-05-09T05:12:03.605Z,16.27
2024-05-09T05:14:36.733Z,16.64
2024-05-09T05:17:09.171Z,16.84
2024-05-09T05:19:43.526Z,17.38
2024-05-09T05:22:16.338Z,17.56
2024-05-09T05:24:48.495Z,18.25
2024-05-09T05:27:22.177Z,18.21
2024-05-09T05:29:54.807Z,17.70
2024-05-09T05:32:39.138Z,17.65
2024-05-09T05:35:12.484Z,18.56
2024-05-09T05:37:45.843Z,20.33
2024-05-09T05:40:27.882Z,21.76
2024-05-09T05:43:09.574Z,21.46
2024-05-09T05:45:43.799Z,22.15
2024-05-09T05:48:17.941Z,22.60
2024-05-09T05:50:50.672Z,22.63
2024-05-09T05:53:24.099Z,22.75
2024-05-09T05:55:56.519Z,22.81
2024-05-09T05:58:28.600Z,22.39
2024-05-09T06:01:00.767Z,21.77
2024-05-09T06:03:38.493Z,21.82
2024-05-09T06:06:12.133Z,21.82
2024-05-09T06:08:45.361Z,22.48
2024-05-09T06:11:18.227Z,24.37
2024-05-09T06:13:50.760Z,25.44
2024-05-09T06:16:26.462Z,26.42
2024-05-09T06:18:59.599Z,27.06
2024-05-09T06:21:33.152Z,27.71
2024-05-09T06:24:08.507Z,27.31
2024-05-09T06:26:46.532Z,27.96
2024-05-09T06:29:19.438Z,28.44
2024-05-09T06:31:52.459Z,29.31
2024-05-09T06:34:25.159Z,30.14
2024-05-09T06:36:57.810Z,32.34
2024-05-09T06:39:30.520Z,32.71
2024-05-09T06:42:06.196Z,33.23
2024-05-09T06:44:38.824Z,34.87
2024-05-09T06:47:10.923Z,35.05
2024-05-09T06:49:44.119Z,35.70
2024-05-09T06:52:16.616Z,36.36
2024-05-09T06:54:48.761Z,36.93
2024-05-09T06:57:22.888Z,37.82
2024-05-09T07:00:00.041Z,36.96
2024-05-09T07:02:35.359Z,37.65
2024-05-09T07:05:08.801Z,38.45
2024-05-09T07:07:42.016Z,39.05
2024-05-09T07:10:21.644Z,39.56
2024-05-09T07:12:57.873Z,39.69
2024-05-09T07:15:30.222Z,39.29
2024-05-09T07:18:09.157Z,39.26
2024-05-09T07:20:43.166Z,40.33
2024-05-09T07:23:16.549Z,40.66
2024-05-09T07:25:49.066Z,40.91
2024-05-09T07:28:23.392Z,40.65
2024-05-09T07:30:56.139Z,40.59
2024-05-09T07:33:28.844Z,41.03
2024-05-09T07:36:01.314Z,40.96
2024-05-09T07:38:34.611Z,41.47
2024-05-09T07:41:08.937Z,41.10
2024-05-09T07:43:42.358Z,41.29
2024-05-09T07:54:07.457Z,42.68
2024-05-09T07:56:40.172Z,41.86
2024-05-09T07:59:15.684Z,42.48
2024-05-09T08:01:56.769Z,42.58
2024-05-09T08:04:30.140Z,42.34
2024-05-09T08:07:05.732Z,42.98
2024-05-09T08:09:39.732Z,43.40
2024-05-09T08:12:16.436Z,42.53
2024-05-09T08:14:48.462Z,42.93
2024-05-09T08:17:20.625Z,42.53
2024-05-09T08:19:56.363Z,42.51
2024-05-09T08:22:32.606Z,42.74
2024-05-09T08:25:05.516Z,42.75
2024-05-09T08:27:37.921Z,42.36
2024-05-09T08:30:21.334Z,43.05
2024-05-09T08:32:58.227Z,43.25
2024-05-09T08:35:30.864Z,43.51
2024-05-09T08:38:07.807Z,44.00
2024-05-09T08:40:39.775Z,43.97
2024-05-09T08:43:14.776Z,42.59
2024-05-09T08:45:52.503Z,43.44
2024-05-09T08:48:29.203Z,43.43
2024-05-09T08:51:02.344Z,43.52
2024-05-09T08:53:35.471Z,43.30
2024-05-09T08:56:08.018Z,43.16
2024-05-09T08:58:40.238Z,42.56
2024-05-09T09:01:13.823Z,43.17
2024-05-09T09:03:48.766Z,43.41
2024-05-09T09:06:25.416Z,42.18
2024-05-09T09:08:58.582Z,42.49
2024-05-09T09:11:30.959Z,42.52
2024-05-09T09:14:03.837Z,42.83
2024-05-09T09:16:37.417Z,42.87
2024-05-09T09:19:09.918Z,42.86
2024-05-09T09:21:54.556Z,42.57
2024-05-09T09:24:28.907Z,42.50
2024-05-09T09:27:06.314Z,43.00
2024-05-09T09:29:44.673Z,42.42
2024-05-09T09:32:18.407Z,41.51
2024-05-09T09:34:53.699Z,42.20
2024-05-09T09:37:32.355Z,42.09
2024-05-09T09:40:08.955Z,42.15
2024-05-09T09:42:55.489Z,42.56
2024-05-09T09:45:29.764Z,42.39
2024-05-09T09:48:03.672Z,39.87
2024-05-09T09:50:39.019Z,39.65
2024-05-09T09:53:13.306Z,40.40
2024-05-09T09:55:47.774Z,41.10
2024-05-09T09:58:20.461Z,40.92
2024-05-09T10:00:55.693Z,40.89
2024-05-09T10:03:29.198Z,39.89
2024-05-09T10:06:03.240Z,39.42
2024-05-09T10:08:37.865Z,39.13
2024-05-09T10:11:11.074Z,37.39
2024-05-09T10:13:47.134Z,37.12
2024-05-09T10:16:24.143Z,38.27
2024-05-09T10:18:56.746Z,38.84
2024-05-09T10:21:29.202Z,39.00
2024-05-09T10:24:04.511Z,39.20
2024-05-09T10:26:38.844Z,38.94
2024-05-09T10:29:19.061Z,36.47
2024-05-09T10:31:52.182Z,34.90
2024-05-09T10:34:26.138Z,36.24
2024-05-09T10:37:05.059Z,36.73
2024-05-09T10:39:39.636Z,36.95
2024-05-09T10:42:15.645Z,37.24
2024-05-09T10:44:48.931Z,36.77
2024-05-09T10:47:23.686Z,35.24
2024-05-09T10:49:58.665Z,34.01
2024-05-09T10:52:32.096Z,32.70
2024-05-09T10:55:06.717Z,31.39
2024-05-09T10:57:43.479Z,30.87
2024-05-09T11:00:26.995Z,30.79
2024-05-09T11:03:06.802Z,29.70
2024-05-09T11:05:43.940Z,29.06
2024-05-09T11:08:17.358Z,28.56
2024-05-09T11:10:50.759Z,27.62
2024-05-09T11:13:33.729Z,27.32
2024-05-09T11:16:08.082Z,27.34
2024-05-09T11:18:45.409Z,27.29
2024-05-09T11:21:18.731Z,27.24
2024-05-09T11:23:50.813Z,27.18
2024-05-09T11:26:25.483Z,26.94
2024-05-09T11:28:57.902Z,26.56
2024-05-09T11:31:30.140Z,26.83
2024-05-09T11:34:05.310Z,26.87
2024-05-09T11:36:40.518Z,26.66
2024-05-09T11:39:16.540Z,26.32
2024-05-09T11:41:48.928Z,26.38
2024-05-09T11:44:21.047Z,25.97
2024-05-09T11:46:54.475Z,25.82
2024-05-09T11:49:27.948Z,26.39
2024-05-09T11:52:00.756Z,26.57
2024-05-09T11:54:38.905Z,26.65
2024-05-09T11:57:11.745Z,26.50
2024-05-09T11:59:48.042Z,26.18
2024-05-09T12:02:20.854Z,25.93
2024-05-09T12:04:55.605Z,25.98
2024-05-09T12:07:30.229Z,25.61
2024-05-09T12:10:06.193Z,25.48
2024-05-09T12:12:40.604Z,25.33
2024-05-09T12:15:15.981Z,25.05
2024-05-09T12:17:50.916Z,24.85
2024-05-09T12:20:33.060Z,24.74
2024-05-09T12:23:10.769Z,24.65
2024-05-09T12:25:49.008Z,24.45
2024-05-09T12:28:22.399Z,24.43
2024-05-09T12:30:58.431Z,24.30
2024-05-09T12:33:31.017Z,24.35
2024-05-09T12:36:07.313Z,24.52
2024-05-09T12:38:39.091Z,24.67
2024-05-09T12:41:12.362Z,24.66
2024-05-09T12:43:45.255Z,24.65
2024-05-09T12:46:20.477Z,24.61
2024-05-09T12:48:57.002Z,24.50
2024-05-09T12:51:31.378Z,24.27
2024-05-09T12:54:15.121Z,24.04
2024-05-09T12:56:48.314Z,23.63
2024-05-09T12:59:20.547Z,23.35
2024-05-09T13:02:01.032Z,23.09
2024-05-09T13:04:35.490Z,22.98
2024-05-09T13:07:08.727Z,22.91
2024-05-09T13:09:40.884Z,22.89
2024-05-09T13:12:14.970Z,23.18
2024-05-09T13:14:47.789Z,23.67
2024-05-09T13:17:20.334Z,23.95
2024-05-09T13:19:56.433Z,24.17
2024-05-09T13:22:29.262Z,24.10
2024-05-09T13:25:03.477Z,24.15
2024-05-09T13:27:36.655Z,24.12
2024-05-09T13:30:17.631Z,24.03
2024-05-09T13:32:55.370Z,23.78
2024-05-09T13:35:28.442Z,23.55
2024-05-09T13:38:03.900Z,23.35
2024-05-09T13:40:36.937Z,23.00
2024-05-09T13:43:09.831Z,22.81
2024-05-09T13:45:43.298Z,22.84
2024-05-09T13:48:16.663Z,22.66
2024-05-09T13:50:48.894Z,22.67
2024-05-09T13:53:20.948Z,22.74
2024-05-09T13:55:54.399Z,22.93
2024-05-09T13:58:27.142Z,23.14
2024-05-09T14:00:59.326Z,23.46
2024-05-09T14:03:34.048Z,23.84
2024-05-09T14:06:12.766Z,24.21
2024-05-09T14:08:46.224Z,24.17
2024-05-09T14:11:18.458Z,23.88
2024-05-09T14:13:50.526Z,23.63
2024-05-09T14:16:26.642Z,23.31
2024-05-09T14:18:59.250Z,23.05
2024-05-09T14:21:32.381Z,22.92
2024-05-09T14:24:05.286Z,22.73
2024-05-09T14:26:37.668Z,22.83
2024-05-09T14:29:09.972Z,23.20
2024-05-09T14:31:43.597Z,23.18
2024-05-09T14:34:16.617Z,23.14
2024-05-09T14:36:49.356Z,23.35
2024-05-09T14:39:22.187Z,23.58
2024-05-09T14:41:56.783Z,23.72
2024-05-09T14:44:29.143Z,23.82
2024-05-09T14:47:03.874Z,24.00
2024-05-09T14:49:36.405Z,23.82
2024-05-09T14:52:09.533Z,23.66
2024-05-09T14:54:42.399Z,23.57
2024-05-09T14:57:15.297Z,23.81
2024-05-09T14:59:49.137Z,24.16
2024-05-09T15:02:21.802Z,24.43
2024-05-09T15:04:54.907Z,24.58
2024-05-09T15:07:30.356Z,24.44
2024-05-09T15:10:11.598Z,24.53
2024-05-09T15:12:48.990Z,24.52
2024-05-09T15:15:25.291Z,24.14
2024-05-09T15:18:00.767Z,23.97
2024-05-09T15:20:36.691Z,23.83
2024-05-09T15:23:09.607Z,23.90
2024-05-09T15:25:42.494Z,23.94
2024-05-09T15:28:15.027Z,24.02
2024-05-09T15:30:47.920Z,23.91
2024-05-09T15:33:20.342Z,23.65
2024-05-09T15:35:55.075Z,23.29
2024-05-09T15:38:28.326Z,23.18
2024-05-09T15:41:00.909Z,23.17
2024-05-09T15:43:33.991Z,23.48
2024-05-09T15:46:07.133Z,23.59
2024-05-09T15:48:41.891Z,23.85
2024-05-09T15:51:16.777Z,24.07
2024-05-09T15:53:49.113Z,24.17
2024-05-09T15:56:23.504Z,24.24
2024-05-09T15:58:56.363Z,24.30
2024-05-09T16:01:29.376Z,24.29
2024-05-09T16:04:04.062Z,24.37
2024-05-09T16:06:37.483Z,24.45
2024-05-09T16:09:09.987Z,24.56
2024-05-09T16:11:43.584Z,24.60
2024-05-09T16:14:16.869Z,24.57
2024-05-09T16:16:49.358Z,24.36
2024-05-09T16:19:22.369Z,24.20
2024-05-09T16:21:55.102Z,24.07
2024-05-09T16:24:27.742Z,24.04
2024-05-09T16:26:59.786Z,23.86
2024-05-09T16:29:32.363Z,23.82
2024-05-09T16:32:05.424Z,23.87
2024-05-09T16:34:37.855Z,23.74
2024-05-09T16:37:15.450Z,23.74
2024-05-09T16:39:48.674Z,23.54
2024-05-09T16:42:20.846Z,23.54
2024-05-09T16:44:56.829Z,23.40
2024-05-09T16:47:29.254Z,23.21
2024-05-09T16:50:05.024Z,23.10
2024-05-09T16:52:38.164Z,22.95
2024-05-09T16:55:10.858Z,22.85
2024-05-09T16:57:44.364Z,22.72
2024-05-09T17:00:25.950Z,22.66
2024-05-09T17:03:09.787Z,22.41
2024-05-09T17:05:43.839Z,22.34
2024-05-09T17:08:19.863Z,22.32
2024-05-09T17:10:55.400Z,22.27
2024-05-09T17:13:28.231Z,22.33
2024-05-09T17:16:01.137Z,22.50
2024-05-09T17:18:36.547Z,22.41
2024-05-09T17:21:09.381Z,22.31
2024-05-09T17:23:44.322Z,22.22
2024-05-09T17:26:16.544Z,22.22
2024-05-09T17:28:48.926Z,22.25
2024-05-09T17:31:22.690Z,22.25
2024-05-09T17:33:56.070Z,22.13
2024-05-09T17:36:28.581Z,21.97
2024-05-09T17:39:02.350Z,21.82
2024-05-09T17:41:34.952Z,21.64
2024-05-09T17:44:10.274Z,21.60
2024-05-09T17:46:46.346Z,21.63
2024-05-09T17:49:19.411Z,21.49
2024-05-09T17:51:55.740Z,21.38
2024-05-09T17:54:27.964Z,21.23
2024-05-09T17:57:00.445Z,21.18
2024-05-09T17:59:35.491Z,21.12
2024-05-09T18:02:12.305Z,21.10
2024-05-09T18:04:45.536Z,20.95
2024-05-09T18:07:17.937Z,20.81
2024-05-09T18:09:50.518Z,20.80
2024-05-09T18:12:25.887Z,20.76
2024-05-09T18:14:57.920Z,20.59
2024-05-09T18:17:30.707Z,20.36
2024-05-09T18:20:08.975Z,20.13
2024-05-09T18:22:42.316Z,20.02
2024-05-09T18:25:15.005Z,19.92
2024-05-09T18:27:50.812Z,19.87
2024-05-09T18:30:31.591Z,19.80
2024-05-09T18:33:08.489Z,19.65
2024-05-09T18:35:40.011Z,19.50
2024-05-09T18:38:15.505Z,19.62
2024-05-09T18:40:49.383Z,19.71
2024-05-09T18:43:31.128Z,19.46
2024-05-09T18:46:08.743Z,19.20
2024-05-09T18:48:41.217Z,19.17
2024-05-09T18:51:16.462Z,19.30
2024-05-09T18:53:48.967Z,19.31
2024-05-09T18:56:22.096Z,19.38
2024-05-09T18:58:54.830Z,19.39
2024-05-09T19:01:29.326Z,19.07
2024-05-09T19:04:04.978Z,18.80
2024-05-09T19:06:39.162Z,18.88
2024-05-09T19:09:11.716Z,18.95
2024-05-09T19:11:45.389Z,19.02
2024-05-09T19:14:17.717Z,19.20
2024-05-09T19:16:49.685Z,19.01
2024-05-09T19:19:22.543Z,18.62
2024-05-09T19:21:58.091Z,18.47
2024-05-09T19:24:30.744Z,18.61
2024-05-09T19:27:05.667Z,18.67
2024-05-09T19:29:37.780Z,18.70
2024-05-09T19:32:15.096Z,18.63
2024-05-09T19:34:47.865Z,18.71
2024-05-09T19:37:20.238Z,18.60
2024-05-09T19:39:53.670Z,18.37
2024-05-09T19:42:32.115Z,18.41
2024-05-09T19:45:05.287Z,18.43
2024-05-09T19:47:37.761Z,18.10
2024-05-09T19:50:14.141Z,17.78
2024-05-09T19:52:52.420Z,17.85
2024-05-09T19:55:25.339Z,18.02
2024-05-09T19:57:59.892Z,18.09
2024-05-09T20:00:36.737Z,18.06
2024-05-09T20:03:12.857Z,17.84
2024-05-09T20:05:49.537Z,17.51
2024-05-09T20:08:24.504Z,17.57
2024-05-09T20:10:55.299Z,17.89
2024-05-09T20:13:28.951Z,17.97
2024-05-09T20:16:03.278Z,17.88
2024-05-09T20:18:39.059Z,17.87
2024-05-09T20:21:12.480Z,17.88
2024-05-09T20:23:45.062Z,17.80
2024-05-09T20:26:17.901Z,17.47
2024-05-09T20:28:50.439Z,17.22
2024-05-09T20:31:26.359Z,17.49
2024-05-09T20:33:59.472Z,17.51
2024-05-09T20:36:32.489Z,17.57
2024-05-09T20:39:04.805Z,17.72
2024-05-09T20:41:45.553Z,17.71
2024-05-09T20:44:18.812Z,17.68
2024-05-09T20:46:50.857Z,17.61
2024-05-09T20:49:24.593Z,17.27
2024-05-09T20:51:57.832Z,17.35
2024-05-09T20:54:30.552Z,17.56
2024-05-09T20:57:04.296Z,17.62
2024-05-09T20:59:38.225Z,17.63
2024-05-09T21:02:10.847Z,17.65
2024-05-09T21:04:43.952Z,17.60
2024-05-09T21:07:17.034Z,17.53
2024-05-09T21:09:49.533Z,17.24
2024-05-09T21:12:22.612Z,17.12
2024-05-09T21:14:54.874Z,17.37
2024-05-09T21:17:27.928Z,17.60
2024-05-09T21:20:00.258Z,17.61
2024-05-09T21:22:34.725Z,17.62
2024-05-09T21:25:08.248Z,17.65
2024-05-09T21:27:40.559Z,17.69
2024-05-09T21:30:22.268Z,17.69
2024-05-09T21:33:00.943Z,17.49
2024-05-09T21:35:33.522Z,17.38
2024-05-09T21:38:07.251Z,17.39
2024-05-09T21:40:39.492Z,17.03
2024-05-09T21:43:12.635Z,16.80
2024-05-09T21:45:46.031Z,16.95
2024-05-09T21:48:18.651Z,17.10
2024-05-09T21:50:51.153Z,17.09
2024-05-09T21:53:26.653Z,17.04
2024-05-09T21:55:59.122Z,16.94
2024-05-09T21:58:32.118Z,16.84
2024-05-09T22:01:05.840Z,16.60
2024-05-09T22:03:39.373Z,16.31
2024-05-09T22:06:14.568Z,16.41
2024-05-09T22:08:46.848Z,16.52
2024-05-09T22:11:19.340Z,16.58
2024-05-09T22:13:52.292Z,16.39
2024-05-09T22:16:25.215Z,16.28
2024-05-09T22:19:01.095Z,16.04
2024-05-09T22:21:36.938Z,15.82
2024-05-09T22:24:09.637Z,15.96
2024-05-09T22:26:42.700Z,16.12
2024-05-09T22:29:15.312Z,16.18
2024-05-09T22:31:48.018Z,16.13
2024-05-09T22:34:20.042Z,16.07
2024-05-09T22:36:53.869Z,15.73
2024-05-09T22:39:26.459Z,15.59
2024-05-09T22:41:59.079Z,15.66
2024-05-09T22:44:34.556Z,15.68
2024-05-09T22:47:07.691Z,15.75
2024-05-09T22:49:39.675Z,15.78
2024-05-09T22:52:12.579Z,15.76
2024-05-09T22:54:45.013Z,15.71
2024-05-09T22:57:17.881Z,15.52
2024-05-09T22:59:50.442Z,15.25
2024-05-09T23:02:25.660Z,15.33
2024-05-09T23:04:57.794Z,15.52
2024-05-09T23:07:33.755Z,15.71
2024-05-09T23:10:13.201Z,15.82
2024-05-09T23:12:49.468Z,15.72
2024-05-09T23:15:22.290Z,15.50
2024-05-09T23:17:55.276Z,15.43
2024-05-09T23:20:35.435Z,15.04
2024-05-09T23:23:12.007Z,15.23
2024-05-09T23:25:45.005Z,15.55
2024-05-09T23:28:18.766Z,15.82
2024-05-09T23:30:51.092Z,15.77
2024-05-09T23:33:24.938Z,15.65
2024-05-09T23:35:57.873Z,15.57
2024-05-09T23:38:32.487Z,15.48
2024-05-09T23:41:07.402Z,15.07
2024-05-09T23:43:39.394Z,14.85
2024-05-09T23:46:14.484Z,14.92
2024-05-09T23:48:47.700Z,14.96
2024-05-09T23:51:19.639Z,14.81
2024-05-09T23:53:52.518Z,14.89
2024-05-09T23:56:25.313Z,14.97
2024-05-09T23:58:58.939Z,14.91
